createdAt,value
2019-03-22T00:02:00.000Z,100338
2019-03-22T00:07:00.000Z,100340
2019-03-22T00:12:00.000Z,100324
2019-03-22T00:17:00.000Z,100339
2019-03-22T00:22:00.000Z,100334
2019-03-22T00:27:00.000Z,100333
2019-03-22T00:32:00.000Z,100328
2019-03-22T00:37:00.000Z,100318
2019-03-22T00:42:00.000Z,100324
2019-03-22T00:47:00.000Z,100313
2019-03-22T00:52:00.000Z,100306
2019-03-22T00:57:00.000Z,100311
2019-03-22T01:02:00.000Z,100309
2019-03-22T01:07:00.000Z,100309
2019-03-22T01:12:00.000Z,100309
2019-03-22T01:17:00.000Z,100291
2019-03-22T01:22:00.000Z,100305
2019-03-22T01:27:00.000Z,100297
2019-03-22T01:32:00.000Z,100309
2019-03-22T01:37:00.000Z,100302
2019-03-22T01:42:00.000Z,100300
2019-03-22T01:47:00.000Z,100303
2019-03-22T01:52:00.000Z,100297
2019-03-22T01:57:00.000Z,100311
2019-03-22T02:02:00.000Z,100295
2019-03-22T02:07:00.000Z,100294
2019-03-22T02:12:00.000Z,100310
2019-03-22T02:17:00.000Z,100301
2019-03-22T02:22:00.000Z,100301
2019-03-22T02:27:00.000Z,100290
2019-03-22T02:33:00.000Z,100284
2019-03-22T02:38:00.000Z,100284
2019-03-22T02:43:00.000Z,100283
2019-03-22T02:48:00.000Z,100279
2019-03-22T02:53:00.000Z,100283
2019-03-22T02:58:00.000Z,100283
2019-03-22T03:03:00.000Z,100281
2019-03-22T03:08:00.000Z,100279
2019-03-22T03:13:00.000Z,100279
2019-03-22T03:18:00.000Z,100281
2019-03-22T03:23:00.000Z,100291
2019-03-22T03:28:00.000Z,100282
2019-03-22T03:33:00.000Z,100288
2019-03-22T03:38:00.000Z,100290
2019-03-22T03:43:00.000Z,100299
2019-03-22T03:48:00.000Z,100289
2019-03-22T03:53:00.000Z,100279
2019-03-22T03:58:00.000Z,100282
2019-03-22T04:03:00.000Z,100278
2019-03-22T04:08:00.000Z,100270
2019-03-22T04:13:00.000Z,100281
2019-03-22T04:18:00.000Z,100282
2019-03-22T04:23:00.000Z,100277
2019-03-22T04:28:00.000Z,100282
2019-03-22T04:34:00.000Z,100291
2019-03-22T04:39:00.000Z,100286
2019-03-22T04:44:00.000Z,100284
2019-03-22T04:49:00.000Z,100295
2019-03-22T04:54:00.000Z,100291
2019-03-22T04:59:00.000Z,100296
2019-03-22T05:04:00.000Z,100318
2019-03-22T05:09:00.000Z,100310
2019-03-22T05:14:00.000Z,100321
2019-03-22T05:19:00.000Z,100321
2019-03-22T05:24:00.000Z,100319
2019-03-22T05:29:00.000Z,100331
2019-03-22T05:34:00.000Z,100341
2019-03-22T05:39:00.000Z,100343
2019-03-22T05:44:00.000Z,100332
2019-03-22T05:49:00.000Z,100335
2019-03-22T05:54:00.000Z,100327
2019-03-22T05:59:00.000Z,100327
2019-03-22T06:04:00.000Z,100323
2019-03-22T06:09:00.000Z,100332
2019-03-22T06:14:00.000Z,100341
2019-03-22T06:19:00.000Z,100341
2019-03-22T06:24:00.000Z,100342
2019-03-22T06:29:00.000Z,100347
2019-03-22T06:34:00.000Z,100335
2019-03-22T06:39:00.000Z,100333
2019-03-22T06:44:00.000Z,100345
2019-03-22T06:49:00.000Z,100345
2019-03-22T06:54:00.000Z,100333
2019-03-22T06:59:00.000Z,100347
2019-03-22T07:05:00.000Z,100343
2019-03-22T07:10:00.000Z,100344
2019-03-22T07:15:00.000Z,100349
2019-03-22T07:20:00.000Z,100343
2019-03-22T07:25:00.000Z,100340
2019-03-22T07:30:00.000Z,100344
2019-03-22T07:35:00.000Z,100345
2019-03-22T07:40:00.000Z,100341
2019-03-22T07:45:00.000Z,100350
2019-03-22T07:50:00.000Z,100350
2019-03-22T07:55:00.000Z,100347
2019-03-22T08:00:00.000Z,100341
2019-03-22T08:05:00.000Z,100346
2019-03-22T08:10:00.000Z,100342
2019-03-22T08:15:00.000Z,100345
2019-03-22T08:20:00.000Z,100335
2019-03-22T08:25:00.000Z,100336
2019-03-22T08:30:00.000Z,100333
2019-03-22T08:35:00.000Z,100335
2019-03-22T08:40:00.000Z,100331
2019-03-22T08:45:00.000Z,100338
2019-03-22T08:50:00.000Z,100342
2019-03-22T08:55:00.000Z,100340
2019-03-22T09:00:00.000Z,100350
2019-03-22T09:05:00.000Z,100349
2019-03-22T09:10:00.000Z,100340
2019-03-22T09:15:00.000Z,100346
2019-03-22T09:21:00.000Z,100340
2019-03-22T09:26:00.000Z,100347
2019-03-22T09:31:00.000Z,100337
2019-03-22T09:36:00.000Z,100339
2019-03-22T09:41:00.000Z,100348
2019-03-22T09:46:00.000Z,100345
2019-03-22T09:51:00.000Z,100349
2019-03-22T09:56:00.000Z,100349
2019-03-22T10:01:00.000Z,100354
2019-03-22T10:06:00.000Z,100332
2019-03-22T10:11:00.000Z,100341
2019-03-22T10:16:00.000Z,100335
2019-03-22T10:21:00.000Z,100333
2019-03-22T10:26:00.000Z,100326
2019-03-22T10:31:00.000Z,100326
2019-03-22T10:36:00.000Z,100322
2019-03-22T10:41:00.000Z,100317
2019-03-22T10:46:00.000Z,100324
2019-03-22T10:51:00.000Z,100311
2019-03-22T10:56:00.000Z,100323
2019-03-22T11:01:00.000Z,100315
2019-03-22T11:07:00.000Z,100319
2019-03-22T11:12:00.000Z,100307
2019-03-22T11:17:00.000Z,100293
2019-03-22T11:22:00.000Z,100294
2019-03-22T11:27:00.000Z,100290
2019-03-22T11:32:00.000Z,100285
2019-03-22T11:37:00.000Z,100283
2019-03-22T11:42:00.000Z,100282
2019-03-22T11:47:00.000Z,100274
2019-03-22T11:52:00.000Z,100270
2019-03-22T11:57:00.000Z,100258
2019-03-22T12:02:00.000Z,100272
2019-03-22T12:07:00.000Z,100258
2019-03-22T12:12:00.000Z,100254
2019-03-22T12:17:00.000Z,100219
2019-03-22T12:22:00.000Z,100219
2019-03-22T12:27:00.000Z,100209
2019-03-22T12:32:00.000Z,100201
2019-03-22T12:37:00.000Z,100185
2019-03-22T12:42:00.000Z,100180
2019-03-22T12:47:00.000Z,100183
2019-03-22T12:52:00.000Z,100186
2019-03-22T12:57:00.000Z,100173
2019-03-22T13:02:00.000Z,100186
2019-03-22T13:07:00.000Z,100173
2019-03-22T13:12:00.000Z,100170
2019-03-22T13:17:00.000Z,100168
2019-03-22T13:22:00.000Z,100167
2019-03-22T13:27:00.000Z,100172
2019-03-22T13:32:00.000Z,100162
2019-03-22T13:37:00.000Z,100158
2019-03-22T13:42:00.000Z,100153
2019-03-22T13:47:00.000Z,100158
2019-03-22T13:52:00.000Z,100151
2019-03-22T13:57:00.000Z,100151
2019-03-22T14:02:00.000Z,100150
2019-03-22T14:08:00.000Z,100142
2019-03-22T14:13:00.000Z,100128
2019-03-22T14:18:00.000Z,100121
2019-03-22T14:23:00.000Z,100103
2019-03-22T14:28:00.000Z,100099
2019-03-22T14:33:00.000Z,100102
2019-03-22T14:38:00.000Z,100102
2019-03-22T14:43:00.000Z,100104
2019-03-22T14:48:00.000Z,100105
2019-03-22T14:53:00.000Z,100095
2019-03-22T14:58:00.000Z,100090
2019-03-22T15:03:00.000Z,100094
2019-03-22T15:08:00.000Z,100080
2019-03-22T15:13:00.000Z,100092
2019-03-22T15:18:00.000Z,100077
2019-03-22T15:23:00.000Z,100074
2019-03-22T15:28:00.000Z,100053
2019-03-22T15:33:00.000Z,100056
2019-03-22T15:38:00.000Z,100058
2019-03-22T15:43:00.000Z,100058
2019-03-22T15:48:00.000Z,100037
2019-03-22T15:53:00.000Z,100049
2019-03-22T15:58:00.000Z,100042
2019-03-22T16:03:00.000Z,100038
2019-03-22T16:08:00.000Z,100022
2019-03-22T16:13:00.000Z,100021
2019-03-22T16:18:00.000Z,100013
2019-03-22T16:23:00.000Z,100011
2019-03-22T16:28:00.000Z,100016
2019-03-22T16:33:00.000Z,100028
2019-03-22T16:38:00.000Z,100029
2019-03-22T16:43:00.000Z,100012
2019-03-22T16:48:00.000Z,100017
2019-03-22T16:53:00.000Z,100012
2019-03-22T16:58:00.000Z,100009
2019-03-22T17:04:00.000Z,100007
2019-03-22T17:09:00.000Z,100010
2019-03-22T17:14:00.000Z,100017
2019-03-22T17:19:00.000Z,100017
2019-03-22T17:24:00.000Z,100011
2019-03-22T17:29:00.000Z,100012
2019-03-22T17:34:00.000Z,100007
2019-03-22T17:39:00.000Z,100014
2019-03-22T17:44:00.000Z,100010
2019-03-22T17:49:00.000Z,100014
2019-03-22T17:54:00.000Z,100014
2019-03-22T17:59:00.000Z,100017
2019-03-22T18:04:00.000Z,100016
2019-03-22T18:09:00.000Z,100020
2019-03-22T18:14:00.000Z,100027
2019-03-22T18:19:00.000Z,100019
2019-03-22T18:24:00.000Z,100024
2019-03-22T18:29:00.000Z,100022
2019-03-22T18:34:00.000Z,100027
2019-03-22T18:39:00.000Z,100019
2019-03-22T18:44:00.000Z,100031
2019-03-22T18:49:00.000Z,100036
2019-03-22T18:54:00.000Z,100036
2019-03-22T18:59:00.000Z,100032
2019-03-22T19:04:00.000Z,100026
2019-03-22T19:09:00.000Z,100028
2019-03-22T19:14:00.000Z,100029
2019-03-22T19:19:00.000Z,100019
2019-03-22T19:24:00.000Z,100020
2019-03-22T19:29:00.000Z,100013
2019-03-22T19:34:00.000Z,100024
2019-03-22T19:39:00.000Z,100024
2019-03-22T19:44:00.000Z,100030
2019-03-22T19:49:00.000Z,100023
2019-03-22T19:54:00.000Z,100024
2019-03-22T19:59:00.000Z,100016
2019-03-22T20:04:00.000Z,100016
2019-03-22T20:10:00.000Z,100015
2019-03-22T20:15:00.000Z,100014
2019-03-22T20:20:00.000Z,100022
2019-03-22T20:25:00.000Z,100010
2019-03-22T20:30:00.000Z,100012
2019-03-22T20:35:00.000Z,100024
2019-03-22T20:40:00.000Z,100015
2019-03-22T20:45:00.000Z,100010
2019-03-22T20:50:00.000Z,100009
2019-03-22T20:55:00.000Z,100011
2019-03-22T21:00:00.000Z,100013
2019-03-22T21:05:00.000Z,100009
2019-03-22T21:10:00.000Z,99994
2019-03-22T21:15:00.000Z,99996
2019-03-22T21:20:00.000Z,99997
2019-03-22T21:25:00.000Z,100007
2019-03-22T21:30:00.000Z,100006
2019-03-22T21:35:00.000Z,100013
2019-03-22T21:40:00.000Z,100004
2019-03-22T21:45:00.000Z,100010
2019-03-22T21:50:00.000Z,100009
2019-03-22T21:55:00.000Z,100021
2019-03-22T22:00:00.000Z,100017
2019-03-22T22:05:00.000Z,100010
2019-03-22T22:10:00.000Z,100004
2019-03-22T22:16:00.000Z,100006
2019-03-22T22:21:00.000Z,100002
2019-03-22T22:26:00.000Z,100005
2019-03-22T22:31:00.000Z,100002
2019-03-22T22:36:00.000Z,100001
2019-03-22T22:41:00.000Z,99997
2019-03-22T22:46:00.000Z,99992
2019-03-22T22:51:00.000Z,99984
2019-03-22T22:56:00.000Z,99979
2019-03-22T23:01:00.000Z,99988
2019-03-22T23:06:00.000Z,99989
2019-03-22T23:11:00.000Z,99991
2019-03-22T23:16:00.000Z,100001
2019-03-22T23:21:00.000Z,99998
2019-03-22T23:26:00.000Z,99996
2019-03-22T23:31:00.000Z,100001
2019-03-22T23:36:00.000Z,99999
2019-03-22T23:41:00.000Z,100003
2019-03-22T23:46:00.000Z,99991
2019-03-22T23:51:00.000Z,99998
2019-03-22T23:56:00.000Z,99998
